AAL3044 KMIA-KTPA
Flight info
| Callsign | AAL3044 |
|---|---|
| Flight time | 0h 39m |
| Altitude | 24000 |
| Route | BNGOS4 COREA BLFRG3 |
| Aircraft | A20N/M-SDE2E3FGHIRWXY/LB1 |
Departure
| Time | 2026-05-04 22:05 |
|---|---|
| Airport | Miami International Airport (KMIA) |
Arrival
| Time | 2026-05-04 22:45 |
|---|---|
| Airport | Tampa International Airport (KTPA) |
| Time | Latitude | Longitude | Altitude | Speed | Heading |
|---|---|---|---|---|---|
| 2026-05-04 21:41 | 25.79819 | -80.28214 | 18 ft | 0 kts | 181° |
| 2026-05-04 21:53 | 25.79821 | -80.28214 | 18 ft | 3 kts | 181° |
| 2026-05-04 21:54 | 25.79840 | -80.28214 | 20 ft | 3 kts | 181° |
| 2026-05-04 21:54 | 25.79858 | -80.28213 | 19 ft | 3 kts | 181° |
| 2026-05-04 21:54 | 25.79876 | -80.28212 | 20 ft | 3 kts | 204° |
| 2026-05-04 21:54 | 25.79891 | -80.28198 | 19 ft | 3 kts | 245° |
| 2026-05-04 21:55 | 25.79894 | -80.28187 | 18 ft | 0 kts | 269° |
| 2026-05-04 22:00 | 25.79894 | -80.28207 | 18 ft | 9 kts | 269° |
| 2026-05-04 22:00 | 25.79900 | -80.28306 | 19 ft | 9 kts | 312° |
| 2026-05-04 22:00 | 25.79939 | -80.28319 | 19 ft | 4 kts | 341° |
| 2026-05-04 22:00 | 25.79952 | -80.28363 | 19 ft | 14 kts | 267° |
| 2026-05-04 22:01 | 25.79945 | -80.28498 | 21 ft | 17 kts | 269° |
| 2026-05-04 22:01 | 25.79942 | -80.28619 | 24 ft | 14 kts | 269° |
| 2026-05-04 22:01 | 25.79944 | -80.28714 | 25 ft | 10 kts | 295° |
| 2026-05-04 22:01 | 25.80022 | -80.28762 | 26 ft | 8 kts | 294° |
| 2026-05-04 22:02 | 25.80015 | -80.28815 | 30 ft | 15 kts | 262° |
| 2026-05-04 22:02 | 25.80005 | -80.29002 | 24 ft | 28 kts | 268° |
| 2026-05-04 22:02 | 25.79998 | -80.29212 | 25 ft | 27 kts | 268° |
| 2026-05-04 22:02 | 25.79990 | -80.29422 | 19 ft | 28 kts | 265° |
| 2026-05-04 22:03 | 25.79980 | -80.29639 | 18 ft | 28 kts | 266° |
| 2026-05-04 22:03 | 25.79971 | -80.29846 | 16 ft | 27 kts | 266° |
| 2026-05-04 22:03 | 25.79973 | -80.29948 | 15 ft | 7 kts | 285° |
| 2026-05-04 22:03 | 25.79974 | -80.29954 | 15 ft | 0 kts | 285° |
| 2026-05-04 22:04 | 25.79977 | -80.29967 | 15 ft | 11 kts | 284° |
| 2026-05-04 22:04 | 25.80021 | -80.30119 | 20 ft | 21 kts | 312° |
| 2026-05-04 22:04 | 25.80066 | -80.30124 | 19 ft | 4 kts | 57° |
| 2026-05-04 22:04 | 25.80076 | -80.30037 | 17 ft | 24 kts | 87° |
| 2026-05-04 22:05 | 25.80097 | -80.29625 | 18 ft | 83 kts | 86° |
| 2026-05-04 22:05 | 25.80133 | -80.28777 | 24 ft | 136 kts | 88° |
| 2026-05-04 22:05 | 25.80174 | -80.27627 | 254 ft | 154 kts | 86° |
| 2026-05-04 22:05 | 25.80238 | -80.26400 | 684 ft | 164 kts | 84° |
| 2026-05-04 22:06 | 25.80339 | -80.25105 | 1157 ft | 172 kts | 82° |
| 2026-05-04 22:06 | 25.80463 | -80.23744 | 1811 ft | 182 kts | 84° |
| 2026-05-04 22:06 | 25.80518 | -80.22237 | 2230 ft | 214 kts | 85° |
| 2026-05-04 22:06 | 25.80560 | -80.20471 | 2756 ft | 241 kts | 86° |
| 2026-05-04 22:07 | 25.80785 | -80.18590 | 3477 ft | 249 kts | 70° |
| 2026-05-04 22:07 | 25.81687 | -80.16939 | 4179 ft | 257 kts | 43° |
| 2026-05-04 22:07 | 25.83272 | -80.16001 | 4832 ft | 265 kts | 11° |
| 2026-05-04 22:07 | 25.85128 | -80.15783 | 5567 ft | 271 kts | 1° |
| 2026-05-04 22:08 | 25.87026 | -80.15732 | 6355 ft | 274 kts | 358° |
| 2026-05-04 22:08 | 25.88946 | -80.15752 | 7112 ft | 277 kts | 351° |
| 2026-05-04 22:08 | 25.90846 | -80.16188 | 7890 ft | 282 kts | 341° |
| 2026-05-04 22:08 | 25.92728 | -80.16830 | 8757 ft | 284 kts | 338° |
| 2026-05-04 22:09 | 25.94612 | -80.17504 | 9698 ft | 285 kts | 338° |
| 2026-05-04 22:09 | 25.96500 | -80.18219 | 10392 ft | 291 kts | 332° |
| 2026-05-04 22:09 | 25.98253 | -80.19362 | 10700 ft | 304 kts | 315° |
| 2026-05-04 22:09 | 25.99602 | -80.21204 | 10964 ft | 316 kts | 296° |
| 2026-05-04 22:10 | 26.00532 | -80.23470 | 11318 ft | 327 kts | 289° |
| 2026-05-04 22:10 | 26.01374 | -80.25852 | 11883 ft | 332 kts | 288° |
| 2026-05-04 22:10 | 26.02218 | -80.28258 | 12516 ft | 335 kts | 289° |
| 2026-05-04 22:10 | 26.03072 | -80.30669 | 13203 ft | 337 kts | 289° |
| 2026-05-04 22:11 | 26.03939 | -80.33096 | 13896 ft | 339 kts | 288° |
| 2026-05-04 22:11 | 26.04821 | -80.35555 | 14502 ft | 342 kts | 289° |
| 2026-05-04 22:11 | 26.05708 | -80.38024 | 15138 ft | 345 kts | 289° |
| 2026-05-04 22:11 | 26.06599 | -80.40500 | 15785 ft | 347 kts | 289° |
| 2026-05-04 22:12 | 26.07500 | -80.43005 | 16379 ft | 349 kts | 289° |
| 2026-05-04 22:12 | 26.08407 | -80.45525 | 16950 ft | 352 kts | 289° |
| 2026-05-04 22:12 | 26.09321 | -80.48066 | 17508 ft | 355 kts | 289° |
| 2026-05-04 22:12 | 26.10239 | -80.50620 | 18066 ft | 357 kts | 289° |
| 2026-05-04 22:13 | 26.11152 | -80.53163 | 18553 ft | 359 kts | 289° |
| 2026-05-04 22:13 | 26.12082 | -80.55751 | 18993 ft | 362 kts | 289° |
| 2026-05-04 22:13 | 26.13080 | -80.58341 | 19455 ft | 365 kts | 293° |
| 2026-05-04 22:13 | 26.14432 | -80.60757 | 19930 ft | 371 kts | 301° |
| 2026-05-04 22:14 | 26.15982 | -80.63075 | 20434 ft | 375 kts | 303° |
| 2026-05-04 22:14 | 26.17576 | -80.65387 | 20933 ft | 378 kts | 303° |
| 2026-05-04 22:14 | 26.19180 | -80.67711 | 21426 ft | 380 kts | 303° |
| 2026-05-04 22:14 | 26.20793 | -80.70056 | 21899 ft | 382 kts | 302° |
| 2026-05-04 22:15 | 26.22412 | -80.72416 | 22371 ft | 384 kts | 302° |
| 2026-05-04 22:15 | 26.24039 | -80.74791 | 22837 ft | 387 kts | 302° |
| 2026-05-04 22:15 | 26.25678 | -80.77188 | 23303 ft | 389 kts | 302° |
| 2026-05-04 22:15 | 26.27323 | -80.79596 | 23724 ft | 392 kts | 302° |
| 2026-05-04 22:16 | 26.28979 | -80.82021 | 23953 ft | 393 kts | 302° |
| 2026-05-04 22:16 | 26.30635 | -80.84447 | 24004 ft | 393 kts | 302° |
| 2026-05-04 22:16 | 26.32269 | -80.86842 | 24009 ft | 393 kts | 302° |
| 2026-05-04 22:16 | 26.33925 | -80.89271 | 24013 ft | 393 kts | 302° |
| 2026-05-04 22:17 | 26.35592 | -80.91690 | 24010 ft | 394 kts | 304° |
| 2026-05-04 22:17 | 26.37463 | -80.93949 | 24007 ft | 398 kts | 310° |
| 2026-05-04 22:17 | 26.39469 | -80.96094 | 24015 ft | 399 kts | 311° |
| 2026-05-04 22:17 | 26.41497 | -80.98214 | 24010 ft | 399 kts | 311° |
| 2026-05-04 22:18 | 26.43525 | -81.00333 | 24012 ft | 399 kts | 311° |
| 2026-05-04 22:18 | 26.45554 | -81.02456 | 24014 ft | 400 kts | 311° |
| 2026-05-04 22:18 | 26.47584 | -81.04584 | 24011 ft | 400 kts | 311° |
| 2026-05-04 22:18 | 26.49607 | -81.06709 | 24009 ft | 399 kts | 311° |
| 2026-05-04 22:19 | 26.51627 | -81.08832 | 24006 ft | 399 kts | 311° |
| 2026-05-04 22:19 | 26.53651 | -81.10964 | 24011 ft | 399 kts | 311° |
| 2026-05-04 22:19 | 26.55669 | -81.13091 | 24012 ft | 399 kts | 311° |
| 2026-05-04 22:19 | 26.57691 | -81.15223 | 24013 ft | 399 kts | 311° |
| 2026-05-04 22:20 | 26.59710 | -81.17354 | 23987 ft | 399 kts | 311° |
| 2026-05-04 22:20 | 26.61730 | -81.19486 | 23777 ft | 398 kts | 311° |
| 2026-05-04 22:20 | 26.63678 | -81.21669 | 23550 ft | 395 kts | 307° |
| 2026-05-04 22:20 | 26.65428 | -81.23979 | 23292 ft | 392 kts | 304° |
| 2026-05-04 22:21 | 26.67140 | -81.26345 | 23024 ft | 391 kts | 304° |
| 2026-05-04 22:21 | 26.68837 | -81.28710 | 22769 ft | 389 kts | 304° |
| 2026-05-04 22:21 | 26.70528 | -81.31066 | 22521 ft | 388 kts | 304° |
| 2026-05-04 22:21 | 26.72216 | -81.33418 | 22131 ft | 387 kts | 304° |
| 2026-05-04 22:22 | 26.73896 | -81.35756 | 21740 ft | 385 kts | 304° |
| 2026-05-04 22:22 | 26.75576 | -81.38094 | 21339 ft | 383 kts | 304° |
| 2026-05-04 22:22 | 26.77244 | -81.40417 | 20911 ft | 381 kts | 304° |
| 2026-05-04 22:22 | 26.78895 | -81.42716 | 20433 ft | 378 kts | 304° |
| 2026-05-04 22:23 | 26.80542 | -81.45010 | 19913 ft | 376 kts | 304° |
| 2026-05-04 22:23 | 26.82157 | -81.47262 | 19409 ft | 374 kts | 304° |
| 2026-05-04 22:23 | 26.83781 | -81.49527 | 18908 ft | 372 kts | 304° |
| 2026-05-04 22:23 | 26.85395 | -81.51779 | 18408 ft | 369 kts | 304° |
| 2026-05-04 22:24 | 26.86996 | -81.54015 | 17854 ft | 367 kts | 304° |
| 2026-05-04 22:24 | 26.88080 | -81.55528 | 17479 ft | 366 kts | 304° |
| 2026-05-04 22:24 | 26.89647 | -81.57718 | 16933 ft | 364 kts | 304° |
| 2026-05-04 22:24 | 26.91223 | -81.59923 | 16391 ft | 362 kts | 304° |
| 2026-05-04 22:25 | 26.92795 | -81.62121 | 15852 ft | 359 kts | 304° |
| 2026-05-04 22:25 | 26.94350 | -81.64298 | 15332 ft | 357 kts | 305° |
| 2026-05-04 22:25 | 26.95902 | -81.66471 | 14815 ft | 355 kts | 305° |
| 2026-05-04 22:25 | 26.97439 | -81.68624 | 14308 ft | 353 kts | 305° |
| 2026-05-04 22:26 | 26.98970 | -81.70770 | 13805 ft | 352 kts | 305° |
| 2026-05-04 22:26 | 27.00499 | -81.72913 | 13240 ft | 350 kts | 305° |
| 2026-05-04 22:26 | 27.02014 | -81.75039 | 12687 ft | 348 kts | 305° |
| 2026-05-04 22:26 | 27.03502 | -81.77126 | 12129 ft | 346 kts | 305° |
| 2026-05-04 22:27 | 27.05001 | -81.79231 | 11603 ft | 344 kts | 306° |
| 2026-05-04 22:27 | 27.06485 | -81.81316 | 11171 ft | 340 kts | 306° |
| 2026-05-04 22:27 | 27.08011 | -81.83345 | 10995 ft | 341 kts | 310° |
| 2026-05-04 22:27 | 27.09793 | -81.85121 | 10990 ft | 344 kts | 318° |
| 2026-05-04 22:28 | 27.11698 | -81.86765 | 10991 ft | 345 kts | 319° |
| 2026-05-04 22:28 | 27.13618 | -81.88380 | 10991 ft | 345 kts | 320° |
| 2026-05-04 22:28 | 27.15538 | -81.89993 | 10995 ft | 345 kts | 320° |
| 2026-05-04 22:28 | 27.17457 | -81.91609 | 10994 ft | 345 kts | 319° |
| 2026-05-04 22:29 | 27.19352 | -81.93208 | 10995 ft | 345 kts | 319° |
| 2026-05-04 22:29 | 27.21267 | -81.94827 | 10997 ft | 345 kts | 319° |
| 2026-05-04 22:29 | 27.23183 | -81.96449 | 10999 ft | 345 kts | 319° |
| 2026-05-04 22:29 | 27.25094 | -81.98067 | 10779 ft | 344 kts | 319° |
| 2026-05-04 22:30 | 27.27001 | -81.99683 | 10551 ft | 343 kts | 319° |
| 2026-05-04 22:30 | 27.28907 | -82.01299 | 10311 ft | 342 kts | 319° |
| 2026-05-04 22:30 | 27.30805 | -82.02910 | 10077 ft | 341 kts | 319° |
| 2026-05-04 22:30 | 27.32686 | -82.04506 | 9838 ft | 334 kts | 319° |
| 2026-05-04 22:31 | 27.34508 | -82.06051 | 9585 ft | 321 kts | 319° |
| 2026-05-04 22:31 | 27.36255 | -82.07536 | 9332 ft | 309 kts | 319° |
| 2026-05-04 22:31 | 27.37898 | -82.09010 | 9084 ft | 294 kts | 317° |
| 2026-05-04 22:31 | 27.39441 | -82.10436 | 9007 ft | 281 kts | 317° |
| 2026-05-04 22:32 | 27.40939 | -82.11830 | 9000 ft | 279 kts | 317° |
| 2026-05-04 22:32 | 27.42440 | -82.13231 | 8998 ft | 280 kts | 317° |
| 2026-05-04 22:32 | 27.43932 | -82.14650 | 8995 ft | 280 kts | 315° |
| 2026-05-04 22:32 | 27.45353 | -82.16142 | 8992 ft | 279 kts | 313° |
| 2026-05-04 22:33 | 27.46755 | -82.17666 | 8994 ft | 279 kts | 313° |
| 2026-05-04 22:33 | 27.48132 | -82.19171 | 8989 ft | 279 kts | 313° |
| 2026-05-04 22:33 | 27.49526 | -82.20697 | 8990 ft | 279 kts | 313° |
| 2026-05-04 22:33 | 27.50924 | -82.22227 | 8989 ft | 279 kts | 313° |
| 2026-05-04 22:34 | 27.52318 | -82.23753 | 8988 ft | 279 kts | 313° |
| 2026-05-04 22:34 | 27.53718 | -82.25285 | 8987 ft | 279 kts | 313° |
| 2026-05-04 22:34 | 27.55115 | -82.26814 | 8988 ft | 279 kts | 313° |
| 2026-05-04 22:34 | 27.56490 | -82.28319 | 8989 ft | 279 kts | 313° |
| 2026-05-04 22:35 | 27.57885 | -82.29847 | 8987 ft | 279 kts | 313° |
| 2026-05-04 22:35 | 27.59279 | -82.31375 | 8985 ft | 279 kts | 313° |
| 2026-05-04 22:35 | 27.60671 | -82.32902 | 8990 ft | 279 kts | 313° |
| 2026-05-04 22:35 | 27.62068 | -82.34434 | 8881 ft | 278 kts | 313° |
| 2026-05-04 22:36 | 27.63453 | -82.35954 | 8382 ft | 280 kts | 313° |
| 2026-05-04 22:36 | 27.64862 | -82.37503 | 7837 ft | 283 kts | 314° |
| 2026-05-04 22:36 | 27.66275 | -82.39056 | 7379 ft | 283 kts | 314° |
| 2026-05-04 22:36 | 27.67664 | -82.40589 | 6956 ft | 282 kts | 313° |
| 2026-05-04 22:37 | 27.68812 | -82.42368 | 6505 ft | 281 kts | 293° |
| 2026-05-04 22:37 | 27.69243 | -82.44508 | 5992 ft | 282 kts | 274° |
| 2026-05-04 22:37 | 27.69285 | -82.46699 | 5731 ft | 276 kts | 270° |
| 2026-05-04 22:37 | 27.69254 | -82.48860 | 5484 ft | 275 kts | 269° |
| 2026-05-04 22:38 | 27.69219 | -82.51033 | 5239 ft | 277 kts | 269° |
| 2026-05-04 22:38 | 27.69189 | -82.53207 | 4994 ft | 278 kts | 270° |
| 2026-05-04 22:38 | 27.69164 | -82.55390 | 4833 ft | 278 kts | 270° |
| 2026-05-04 22:38 | 27.69145 | -82.57570 | 4712 ft | 278 kts | 271° |
| 2026-05-04 22:39 | 27.69509 | -82.59692 | 4598 ft | 276 kts | 296° |
| 2026-05-04 22:39 | 27.70626 | -82.61339 | 4473 ft | 263 kts | 324° |
| 2026-05-04 22:39 | 27.72257 | -82.62203 | 4118 ft | 255 kts | 353° |
| 2026-05-04 22:39 | 27.73989 | -82.62269 | 3719 ft | 253 kts | 0° |
| 2026-05-04 22:40 | 27.75730 | -82.62582 | 3334 ft | 254 kts | 347° |
| 2026-05-04 22:40 | 27.77453 | -82.62916 | 3035 ft | 249 kts | 6° |
| 2026-05-04 22:40 | 27.79054 | -82.62322 | 2981 ft | 242 kts | 36° |
| 2026-05-04 22:40 | 27.80144 | -82.60894 | 2980 ft | 242 kts | 66° |
| 2026-05-04 22:41 | 27.80573 | -82.59096 | 2974 ft | 230 kts | 79° |
| 2026-05-04 22:41 | 27.81122 | -82.57479 | 2928 ft | 211 kts | 55° |
| 2026-05-04 22:41 | 27.81974 | -82.56211 | 2835 ft | 199 kts | 54° |
| 2026-05-04 22:41 | 27.82969 | -82.55213 | 2566 ft | 188 kts | 25° |
| 2026-05-04 22:42 | 27.84189 | -82.54757 | 2277 ft | 182 kts | 13° |
| 2026-05-04 22:42 | 27.85390 | -82.54624 | 2089 ft | 170 kts | 4° |
| 2026-05-04 22:42 | 27.86546 | -82.54574 | 1859 ft | 163 kts | 4° |
| 2026-05-04 22:42 | 27.87644 | -82.54531 | 1651 ft | 153 kts | 4° |
| 2026-05-04 22:43 | 27.88695 | -82.54494 | 1456 ft | 148 kts | 4° |
| 2026-05-04 22:43 | 27.89708 | -82.54458 | 1259 ft | 144 kts | 2° |
| 2026-05-04 22:43 | 27.90709 | -82.54429 | 1101 ft | 145 kts | 3° |
| 2026-05-04 22:43 | 27.91716 | -82.54435 | 899 ft | 145 kts | 2° |
| 2026-05-04 22:44 | 27.92720 | -82.54398 | 769 ft | 144 kts | 7° |
| 2026-05-04 22:44 | 27.93731 | -82.54329 | 518 ft | 146 kts | 4° |
| 2026-05-04 22:44 | 27.94755 | -82.54314 | 416 ft | 151 kts | 3° |
| 2026-05-04 22:44 | 27.95807 | -82.54257 | 155 ft | 149 kts | 2° |
| 2026-05-04 22:45 | 27.96828 | -82.54221 | 29 ft | 140 kts | 359° |
| 2026-05-04 22:45 | 27.97863 | -82.54166 | 25 ft | 36 kts | 22° |
| 2026-05-04 22:45 | 27.97992 | -82.54076 | 26 ft | 15 kts | 30° |
| 2026-05-04 22:46 | 27.98033 | -82.54014 | 27 ft | 7 kts | 83° |
| 2026-05-04 22:46 | 27.98005 | -82.53974 | 28 ft | 8 kts | 171° |
| 2026-05-04 22:46 | 27.97993 | -82.53922 | 28 ft | 13 kts | 85° |
| 2026-05-04 22:46 | 27.97993 | -82.53887 | 29 ft | 0 kts | 94° |